Virginia Beach, VA

10:41 AM EDT on September 23, 2014 (GMT -0400)
Windsor Woods | Change Station
CLOSE
Current Station
Personal Weather Station
Location: Virginia Beach, VA
Elevation: 13 ft
Nearby Weather Stations

Elev 13 ft 36.82 °N, 76.10 °W | Updated 1 minute ago

Partly Cloudy
Partly Cloudy
64.8 °F
Feels Like 64.8 °F
N
6.3
Wind Variable Wind from NNE

Today
High -- | Low -- °F
--% Chance of Precip.
Yesterday
High -- | Low -- °F
Precip. -- in
6:53 AM 6:59 PM
Waning Crescent, 0% visible
Pressure 30.29 in
Visibility 10.0 miles
Clouds Few 4000 ft
Few 12000 ft
Scattered Clouds 18000 ft
Overcast 25000 ft
Dew Point 56 °F
Humidity 73%
Rainfall 0.00 in
Snow Depth Not available.
UV 1 out of 12
Pollen 4.70 out of 12
Ozone Good
PM2.5 Good
Flu Activity Not available.
METAR KNTU 231356Z 02015KT 10SM FEW040 FEW120 SCT180 OVC250 17/12 A3028 RMK AO2 SLP255 T01720117

More Conditions Fewer Conditions

Pressure 30.29 in
Visibility 10.0 miles
Clouds Few 4000 ft
Few 12000 ft
Scattered Clouds 18000 ft
Overcast 25000 ft
Dew Point 56 °F
Humidity 73%
Rainfall 0.00 in
Snow Depth Not available.
UV 1 out of 12
Pollen 4.70 out of 12
Ozone Good
PM2.5 Good
Flu Activity Not available.
METAR KNTU 231356Z 02015KT 10SM FEW040 FEW120 SCT180 OVC250 17/12 A3028 RMK AO2 SLP255 T01720117

More Conditions Fewer Conditions

10-Day Weather Forecast

Almanac

Astronomy

Sep. 23, 2014 Rise Set
Actual Time 6:53 AM EDT 6:59 PM EDT
Civil Twilight 6:27 AM EDT 7:25 PM EDT
Nautical Twilight 5:56 AM EDT 7:55 PM EDT
Astronomical Twilight 5:26 AM EDT 8:26 PM EDT
Moon 6:15 AM EDT 6:37 PM EDT
Length of Visible Light 12h 58m
Length of Day
12h 06m
Tomorrow will be 2m 20s shorter.
Waning Crescent, 0% of the Moon is Illuminated
Today
Waning Crescent
Sep 24
New
Oct 1
First Quarter
Oct 8
Full
Oct 15
Last Quarter

Today's Extremes

State Highs State Lows

Community

WunderPhotos

Upload Photos

1,755,711 photos uploaded!

Nearby

Air Quality

  Air Quality AQ Index Pollutant
Yesterday Good
OZONE
Yesterday Good
PM2.5
Current Good
OZONE
Current Good
PM2.5
Tuesday Good
PM2.5

Snow Depth

Station Depth Elevation
No new snow has been reported.

Earthquake Activity

City Distance Mag. Time & Date
No recent earthquake activity has been reported nearby.
Minimum magnitude displayed is 2.5.

Coastal Water Temperatures

Place Temperature
Chesapeake Bay Bridge Tunnel, VA 73.9 °F
Kiptopeke, VA 75.9 °F
Money Point, VA 75.9 °F

Nearby Weather Stations